Search for the current weather situation

Metar

Metar
TNCA 211600Z 10021KT 9999 SCT023 32/24 Q1011 NOSIG
Decoded Metar

TAF

TAF
TNCA 211600Z 10021KT 9999 SCT023 32/24 Q1011 NOSIG
Decoded TAF
Top